Charlotte, Michigan
Current Conditions -  °F | °C
As of 6:14 AM on Friday 28 Nov 2014 (Local Time) from KFPK Reporting Station
Broken Clouds Broken Clouds  
Wind Chill: 19°   Ceiling: 3500
Heat Index: 19°   Visibility: 10mi
Dew Point: 14°   Wind: 0mph
Humidity: 78%   Direction: NA
Pressure: 30.32"   Gusts: NA
Location:  42.56°N, 84.83°W
Report Text: KFPK 281114Z AUTO 00000KT 10SM BKN035 BKN120 M07/M10 A3032 RMK AO2 T10701102
Loading
Personal Weather Stations






























Interactive Weather Map New forecast layout! Learn more

10-Day Weather Forecast

Advertisements
Track Severe Weather on mobile